Time;durP1;ratioP1;P1;durP2;ratioP2;P2;SDS_P1;SDS_P2;PMS_P1;PMS_P2;Temp;Humidity;BMP_temperature;BMP_pressure;BME280_temperature;BME280_humidity;BME280_pressure;Samples;Min_cycle;Max_cycle;Signal;HPM_P1;HPM_P2
2021/12/21 00:00:12;;;;;;;9.35;5.25;;;-3.10;99.90;;;;;;5013459;28;20515;-59
2021/12/21 00:02:40;;;;;;;7.10;5.47;;;-3.20;99.90;;;;;;5028658;28;20021;-57
2021/12/21 00:05:06;;;;;;;10.30;4.90;;;-3.20;99.90;;;;;;5013464;28;20022;-59
2021/12/21 00:07:32;;;;;;;7.32;5.00;;;-3.20;99.90;;;;;;5016780;28;20018;-59
2021/12/21 00:09:57;;;;;;;4.70;4.15;;;-3.20;99.90;;;;;;5022343;28;20496;-57
2021/12/21 00:12:26;;;;;;;8.48;5.10;;;-3.20;99.90;;;;;;5012813;28;20041;-59
2021/12/21 00:17:45;;;;;;;6.65;4.78;;;-3.20;99.90;;;;;;5032164;28;20116;-56
2021/12/21 00:25:14;;;;;;;7.25;4.50;;;-3.30;99.90;;;;;;5009452;28;20152;-60
2021/12/21 00:27:39;;;;;;;6.90;5.10;;;-3.30;99.90;;;;;;4997764;28;20267;-59
2021/12/21 00:30:06;;;;;;;5.40;4.43;;;-3.30;99.90;;;;;;4992628;28;20027;-55
2021/12/21 00:32:31;;;;;;;10.15;5.03;;;-3.30;99.90;;;;;;4993655;28;20044;-54
2021/12/21 00:34:57;;;;;;;8.32;4.85;;;-3.30;99.90;;;;;;5002839;28;20027;-60
2021/12/21 00:37:26;;;;;;;6.03;4.55;;;-3.40;99.90;;;;;;4992732;28;20456;-60
2021/12/21 00:39:52;;;;;;;8.30;5.03;;;-3.40;99.90;;;;;;5005910;28;20108;-56
2021/12/21 00:42:17;;;;;;;5.97;3.80;;;-3.50;99.90;;;;;;5011418;28;20150;-55
2021/12/21 00:44:43;;;;;;;7.35;4.28;;;-3.50;99.90;;;;;;5011955;28;20050;-56
2021/12/21 00:47:08;;;;;;;7.68;5.05;;;-3.50;99.90;;;;;;5011697;28;20391;-57
2021/12/21 00:49:36;;;;;;;7.40;5.18;;;-3.50;99.90;;;;;;5011281;28;20434;-57
2021/12/21 00:52:01;;;;;;;8.20;5.13;;;-3.50;99.90;;;;;;5011848;28;20060;-56
2021/12/21 00:54:27;;;;;;;9.88;4.90;;;-3.50;99.90;;;;;;5011796;28;20042;-57
2021/12/21 00:56:52;;;;;;;7.75;4.85;;;-3.50;99.90;;;;;;5011485;28;20440;-59
2021/12/21 00:59:18;;;;;;;8.45;5.28;;;-3.50;99.90;;;;;;5011331;28;20030;-58
2021/12/21 01:01:44;;;;;;;7.90;5.25;;;-3.60;99.90;;;;;;5011997;28;20021;-59
2021/12/21 01:04:24;;;;;;;8.98;5.13;;;-3.50;99.90;;;;;;5011280;28;20076;-57
2021/12/21 01:07:05;;;;;;;7.65;4.93;;;-3.60;99.90;;;;;;5010287;28;20025;-55
2021/12/21 01:09:58;;;;;;;5.68;4.80;;;-3.60;99.90;;;;;;5011648;28;20041;-53
2021/12/21 01:12:30;;;;;;;8.63;5.78;;;-3.60;99.90;;;;;;5011407;28;20029;-56
2021/12/21 01:17:30;;;;;;;9.13;5.10;;;-3.70;99.90;;;;;;5011390;28;20026;-58
2021/12/21 01:20:13;;;;;;;7.15;4.55;;;-3.70;99.90;;;;;;5011212;28;20033;-55
2021/12/21 01:28:00;;;;;;;7.78;4.75;;;-3.80;99.90;;;;;;5010051;28;20033;-53
2021/12/21 01:35:55;;;;;;;7.03;4.65;;;-3.80;99.90;;;;;;4991503;28;20037;-57
2021/12/21 01:40:55;;;;;;;10.63;5.05;;;-3.80;99.90;;;;;;5010906;28;20029;-54
2021/12/21 01:43:40;;;;;;;11.20;5.95;;;-3.80;99.90;;;;;;5011795;28;20039;-56
2021/12/21 01:51:36;;;;;;;9.43;5.50;;;-3.80;99.90;;;;;;5011127;28;20052;-55
2021/12/21 01:54:02;;;;;;;5.43;4.60;;;-3.80;99.90;;;;;;5009665;28;20249;-56
2021/12/21 01:56:28;;;;;;;11.27;6.05;;;-3.80;99.90;;;;;;5010468;28;20171;-51
2021/12/21 01:58:54;;;;;;;10.10;6.18;;;-3.80;99.90;;;;;;5014546;28;20025;-55
2021/12/21 02:01:23;;;;;;;6.28;5.15;;;-3.90;99.90;;;;;;5008185;28;20516;-53
2021/12/21 02:03:49;;;;;;;8.98;5.15;;;-3.90;99.90;;;;;;5003998;28;20061;-57
2021/12/21 02:06:22;;;;;;;7.65;5.03;;;-3.90;99.90;;;;;;5004903;28;20030;-53
2021/12/21 02:08:48;;;;;;;9.27;5.57;;;-3.90;99.90;;;;;;5009834;28;20105;-55
2021/12/21 02:11:15;;;;;;;10.13;5.80;;;-4.00;99.90;;;;;;5010442;28;20022;-57
2021/12/21 02:13:46;;;;;;;9.98;5.65;;;-4.00;99.90;;;;;;5008954;28;20026;-53
2021/12/21 02:16:13;;;;;;;10.85;5.75;;;-4.00;99.90;;;;;;5008975;28;20499;-53
2021/12/21 02:23:42;;;;;;;7.95;5.68;;;-4.00;99.90;;;;;;4990571;28;20385;-56
2021/12/21 02:26:33;;;;;;;8.73;5.63;;;-4.00;99.90;;;;;;4990261;28;20109;-55
2021/12/21 02:31:41;;;;;;;9.63;5.28;;;-4.00;99.90;;;;;;4990377;28;20038;-57
2021/12/21 02:34:08;;;;;;;10.60;6.22;;;-4.00;99.90;;;;;;4990647;28;20508;-53
2021/12/21 02:36:34;;;;;;;8.85;5.45;;;-4.00;99.90;;;;;;4990268;28;20065;-53
2021/12/21 02:39:00;;;;;;;9.88;5.50;;;-4.00;99.90;;;;;;4989821;28;20054;-58
2021/12/21 02:41:26;;;;;;;10.20;6.65;;;-4.00;99.90;;;;;;4990452;28;20034;-58
2021/12/21 02:43:54;;;;;;;6.28;5.03;;;-4.00;99.90;;;;;;5005309;28;20036;-55
2021/12/21 02:46:20;;;;;;;8.27;5.95;;;-4.00;99.90;;;;;;5009793;28;20095;-57
2021/12/21 02:48:46;;;;;;;7.15;5.25;;;-4.00;99.90;;;;;;5014032;28;20021;-59
2021/12/21 02:51:12;;;;;;;10.32;5.88;;;-4.10;99.90;;;;;;5027478;28;20360;-54
2021/12/21 02:53:37;;;;;;;7.65;5.47;;;-4.00;99.90;;;;;;5029225;28;20622;-56
2021/12/21 02:56:03;;;;;;;7.35;5.70;;;-4.10;99.90;;;;;;5018317;28;20677;-55
2021/12/21 02:58:29;;;;;;;8.32;5.97;;;-4.10;99.90;;;;;;5015905;28;20053;-55
2021/12/21 03:00:55;;;;;;;8.20;5.70;;;-4.10;99.90;;;;;;5019369;28;20030;-56
2021/12/21 03:03:21;;;;;;;10.40;5.55;;;-4.10;99.90;;;;;;5020635;28;20129;-57
2021/12/21 03:05:53;;;;;;;8.75;5.40;;;-4.10;99.90;;;;;;5015378;28;20528;-57
2021/12/21 03:08:23;;;;;;;7.80;6.30;;;-4.10;99.90;;;;;;5015390;28;20056;-55
2021/12/21 03:11:13;;;;;;;9.18;6.18;;;-4.10;99.90;;;;;;5016310;28;20033;-55
2021/12/21 03:13:54;;;;;;;8.68;5.70;;;-4.10;99.90;;;;;;5016237;28;20065;-56
2021/12/21 03:16:20;;;;;;;10.27;6.25;;;-4.10;99.90;;;;;;5015746;28;20030;-55
2021/12/21 03:18:46;;;;;;;9.52;5.55;;;-4.10;99.90;;;;;;5015650;28;20161;-56
2021/12/21 03:21:12;;;;;;;7.22;5.57;;;-4.10;99.90;;;;;;5015893;28;20057;-54
2021/12/21 03:23:38;;;;;;;7.93;5.55;;;-4.20;99.90;;;;;;5015814;28;20022;-56
2021/12/21 03:26:04;;;;;;;9.73;6.32;;;-4.10;99.90;;;;;;5010900;28;20059;-56
2021/12/21 03:28:30;;;;;;;13.95;6.72;;;-4.10;99.90;;;;;;5015556;28;20022;-57
2021/12/21 03:30:56;;;;;;;10.55;7.30;;;-4.20;99.90;;;;;;5015994;28;20041;-56
2021/12/21 03:33:22;;;;;;;12.07;8.30;;;-4.20;99.90;;;;;;5015740;28;20034;-55
2021/12/21 03:35:48;;;;;;;11.40;7.72;;;-4.20;99.90;;;;;;5016018;28;20040;-53
2021/12/21 03:38:15;;;;;;;9.02;6.63;;;-4.20;99.90;;;;;;5015780;28;20397;-54
2021/12/21 03:40:40;;;;;;;9.90;6.53;;;-4.20;99.90;;;;;;5014554;28;20029;-54
2021/12/21 03:43:06;;;;;;;8.00;6.28;;;-4.30;99.90;;;;;;5016151;28;20034;-55
2021/12/21 03:45:36;;;;;;;10.25;6.20;;;-4.30;99.90;;;;;;5015624;28;20022;-53
2021/12/21 03:48:02;;;;;;;9.30;6.00;;;-4.30;99.90;;;;;;5015510;28;20041;-56
2021/12/21 03:50:28;;;;;;;7.75;5.53;;;-4.30;99.90;;;;;;5015755;28;20033;-56
2021/12/21 03:52:54;;;;;;;10.48;5.40;;;-4.30;99.90;;;;;;5015460;28;20036;-57
2021/12/21 03:55:20;;;;;;;9.10;5.32;;;-4.30;99.90;;;;;;5015860;28;20550;-56
2021/12/21 03:57:46;;;;;;;9.40;5.57;;;-4.30;99.90;;;;;;5015578;28;20103;-56
2021/12/21 04:00:14;;;;;;;9.23;5.60;;;-4.30;99.90;;;;;;5015699;28;20038;-56
2021/12/21 04:02:40;;;;;;;9.07;6.47;;;-4.30;99.90;;;;;;5016089;28;20101;-53
2021/12/21 04:05:06;;;;;;;7.10;5.55;;;-4.30;99.90;;;;;;5019129;28;20449;-56
2021/12/21 04:07:32;;;;;;;10.48;6.53;;;-4.30;99.90;;;;;;5015140;28;20105;-54
2021/12/21 04:09:58;;;;;;;7.15;5.90;;;-4.30;99.90;;;;;;5015405;28;20391;-52
2021/12/21 04:12:24;;;;;;;10.68;5.80;;;-4.30;99.90;;;;;;5015709;28;20030;-54
2021/12/21 04:14:49;;;;;;;14.20;7.25;;;-4.30;99.90;;;;;;5020896;28;20036;-56
2021/12/21 04:17:21;;;;;;;11.95;6.75;;;-4.40;99.90;;;;;;5018643;28;20104;-57
2021/12/21 04:19:46;;;;;;;10.10;6.65;;;-4.40;99.90;;;;;;5012208;28;20072;-55
2021/12/21 04:22:12;;;;;;;9.77;6.95;;;-4.40;99.90;;;;;;5012140;28;20049;-54
2021/12/21 04:24:38;;;;;;;11.35;6.47;;;-4.40;99.90;;;;;;5012422;28;20455;-56
2021/12/21 04:27:04;;;;;;;9.18;6.53;;;-4.40;99.90;;;;;;5011577;28;20084;-56
2021/12/21 04:29:30;;;;;;;11.95;6.38;;;-4.40;99.90;;;;;;5011751;28;20048;-56
2021/12/21 04:31:55;;;;;;;7.00;5.75;;;-4.40;99.90;;;;;;5012185;28;20068;-56
2021/12/21 04:34:21;;;;;;;11.52;6.72;;;-4.40;99.90;;;;;;5012108;28;20384;-55
2021/12/21 04:36:47;;;;;;;10.30;6.60;;;-4.50;99.90;;;;;;5011484;28;20034;-55
2021/12/21 04:40:16;;;;;;;11.50;5.68;;;-4.50;99.90;;;;;;5011797;28;20531;-57
2021/12/21 04:42:07;;;;;;;10.45;6.93;;;-4.40;99.90;;;;;;5002843;28;20084;-56
2021/12/21 04:44:33;;;;;;;12.50;6.53;;;-4.40;99.90;;;;;;5026306;22;20082;-48
2021/12/21 04:46:59;;;;;;;11.25;6.75;;;-4.50;99.90;;;;;;5030597;28;20100;-49
2021/12/21 04:49:25;;;;;;;10.40;6.35;;;-4.50;99.90;;;;;;5022467;28;20048;-48
2021/12/21 04:51:51;;;;;;;8.13;6.18;;;-4.50;99.90;;;;;;5012330;28;20053;-47
2021/12/21 04:54:16;;;;;;;10.85;6.45;;;-4.50;99.90;;;;;;5011660;28;20029;-47
2021/12/21 04:56:42;;;;;;;9.98;6.30;;;-4.50;99.90;;;;;;5010182;28;20038;-49
2021/12/21 04:59:08;;;;;;;9.45;5.18;;;-4.50;99.90;;;;;;5011399;28;20187;-46
2021/12/21 05:01:33;;;;;;;9.68;6.00;;;-4.50;99.90;;;;;;5014911;28;20462;-48
2021/12/21 05:03:59;;;;;;;7.22;6.10;;;-4.60;99.90;;;;;;5016612;28;20400;-47
2021/12/21 05:06:25;;;;;;;10.15;6.95;;;-4.60;99.90;;;;;;5011339;28;20068;-50
2021/12/21 05:09:06;;;;;;;6.95;5.40;;;-4.60;99.90;;;;;;5010980;28;20014;-48
2021/12/21 05:11:35;;;;;;;7.95;6.30;;;-4.60;99.90;;;;;;5011781;28;20040;-47
2021/12/21 05:14:01;;;;;;;7.63;5.32;;;-4.60;99.90;;;;;;5011506;28;20028;-47
2021/12/21 05:16:27;;;;;;;7.15;6.18;;;-4.60;99.90;;;;;;5011567;28;20460;-48
2021/12/21 05:18:52;;;;;;;9.57;6.90;;;-4.60;99.90;;;;;;5011659;28;20069;-47
2021/12/21 05:21:18;;;;;;;9.02;6.35;;;-4.60;99.90;;;;;;5011186;28;20032;-48
2021/12/21 05:23:43;;;;;;;11.10;6.68;;;-4.60;99.90;;;;;;5011274;28;20026;-47
2021/12/21 05:26:09;;;;;;;11.40;6.70;;;-4.60;99.90;;;;;;5020794;28;20021;-52
2021/12/21 05:28:35;;;;;;;10.70;6.03;;;-4.70;99.90;;;;;;5030185;28;20025;-48
2021/12/21 05:31:00;;;;;;;9.48;6.05;;;-4.70;99.90;;;;;;5030599;28;20029;-49
2021/12/21 05:33:29;;;;;;;9.45;6.45;;;-4.70;99.90;;;;;;5030672;28;20095;-51
2021/12/21 05:35:56;;;;;;;11.52;6.32;;;-4.70;99.90;;;;;;5030520;28;20026;-49
2021/12/21 05:38:29;;;;;;;6.85;6.15;;;-4.70;99.90;;;;;;5030144;28;20042;-49
2021/12/21 05:40:56;;;;;;;10.52;6.03;;;-4.70;99.90;;;;;;5031038;28;20064;-51
2021/12/21 05:43:22;;;;;;;9.50;6.93;;;-4.70;99.90;;;;;;5030398;28;20110;-50
2021/12/21 05:45:48;;;;;;;13.75;7.45;;;-4.70;99.90;;;;;;5030016;28;20037;-48
2021/12/21 05:48:13;;;;;;;8.52;5.88;;;-4.80;99.90;;;;;;5024646;28;20050;-52
2021/12/21 05:50:39;;;;;;;6.88;5.80;;;-4.80;99.90;;;;;;5010896;28;20034;-48
2021/12/21 05:53:04;;;;;;;10.40;6.75;;;-4.80;99.90;;;;;;5021301;28;20026;-48
2021/12/21 05:55:30;;;;;;;8.38;5.55;;;-4.80;99.90;;;;;;5030629;28;20029;-48
2021/12/21 05:57:56;;;;;;;12.57;6.22;;;-4.80;99.90;;;;;;5029697;28;20025;-47
2021/12/21 06:00:25;;;;;;;11.68;6.97;;;-4.80;99.90;;;;;;5030218;28;20032;-49
2021/12/21 06:02:51;;;;;;;10.35;6.82;;;-4.80;99.90;;;;;;5029006;28;20026;-49
2021/12/21 06:05:17;;;;;;;10.60;6.43;;;-4.80;99.90;;;;;;5028826;28;20021;-48
2021/12/21 06:07:45;;;;;;;12.18;6.45;;;-4.80;99.90;;;;;;5021341;28;20025;-47
2021/12/21 06:10:18;;;;;;;11.40;7.03;;;-4.80;99.90;;;;;;5030363;28;20045;-48
2021/12/21 06:13:17;;;;;;;11.68;6.85;;;-4.80;99.90;;;;;;5028691;28;20434;-50
2021/12/21 06:15:56;;;;;;;10.00;6.25;;;-4.90;99.90;;;;;;5030121;28;20029;-50
2021/12/21 06:24:46;;;;;;;9.40;7.05;;;-4.90;99.90;;;;;;5010794;28;20045;-48
2021/12/21 06:26:36;;;;;;;11.30;6.28;;;-4.90;99.90;;;;;;5010213;28;20404;-51
2021/12/21 06:29:02;;;;;;;10.75;6.97;;;-5.00;99.90;;;;;;5009976;28;20018;-48
2021/12/21 06:31:28;;;;;;;9.82;6.10;;;-5.00;99.90;;;;;;5009133;28;20115;-49
2021/12/21 06:33:54;;;;;;;9.65;7.03;;;-5.00;99.90;;;;;;5010215;28;20014;-48
2021/12/21 06:36:20;;;;;;;10.98;7.18;;;-5.00;99.90;;;;;;5023591;28;20030;-47
2021/12/21 06:38:46;;;;;;;10.85;7.53;;;-5.00;99.90;;;;;;5011804;28;20045;-48
2021/12/21 06:41:12;;;;;;;9.02;7.40;;;-5.00;99.90;;;;;;5013872;28;20021;-48
2021/12/21 06:43:38;;;;;;;10.05;6.32;;;-5.00;99.90;;;;;;5029894;28;20017;-49
2021/12/21 06:46:20;;;;;;;11.07;7.75;;;-5.00;99.90;;;;;;5029795;28;20033;-48
2021/12/21 06:51:41;;;;;;;11.10;7.30;;;-5.00;99.90;;;;;;5029393;28;20123;-46
2021/12/21 06:54:07;;;;;;;14.48;7.63;;;-5.00;99.90;;;;;;5026613;28;20037;-50
2021/12/21 06:56:33;;;;;;;13.07;7.45;;;-5.10;99.90;;;;;;5029541;28;20034;-50
2021/12/21 06:58:59;;;;;;;9.68;7.90;;;-5.10;99.90;;;;;;5016067;28;20026;-48
2021/12/21 07:01:28;;;;;;;10.70;7.38;;;-5.10;99.90;;;;;;5010261;28;20024;-49
2021/12/21 07:03:54;;;;;;;9.73;7.43;;;-5.10;99.90;;;;;;5009788;28;20025;-48
2021/12/21 07:06:20;;;;;;;11.60;7.30;;;-5.10;99.90;;;;;;5009549;28;20029;-47
2021/12/21 07:08:53;;;;;;;9.90;7.38;;;-5.10;99.90;;;;;;5009409;28;20105;-49
2021/12/21 07:19:29;;;;;;;11.05;7.68;;;-5.10;99.90;;;;;;5029588;28;20415;-49
2021/12/21 07:21:54;;;;;;;10.00;7.82;;;-5.10;99.90;;;;;;5029723;28;20021;-49
2021/12/21 07:24:20;;;;;;;12.25;7.05;;;-5.10;99.90;;;;;;5029986;28;20030;-48
2021/12/21 07:26:46;;;;;;;11.95;8.40;;;-5.10;99.90;;;;;;5028926;28;20028;-47
2021/12/21 07:29:12;;;;;;;11.82;8.43;;;-5.10;99.90;;;;;;5028791;28;20026;-47
2021/12/21 07:31:38;;;;;;;12.52;7.45;;;-5.10;99.90;;;;;;5029886;28;20032;-48
2021/12/21 07:34:04;;;;;;;12.70;8.30;;;-5.10;99.90;;;;;;5029279;28;20030;-47
2021/12/21 07:36:31;;;;;;;14.80;8.77;;;-5.10;99.90;;;;;;5024807;28;20113;-50
2021/12/21 07:38:58;;;;;;;9.77;8.13;;;-5.10;99.90;;;;;;5009202;28;20026;-51
2021/12/21 07:41:24;;;;;;;16.65;9.00;;;-5.10;99.90;;;;;;5008064;28;20484;-48
2021/12/21 07:43:49;;;;;;;16.33;8.30;;;-5.10;99.90;;;;;;5009511;28;20526;-50
2021/12/21 07:46:15;;;;;;;17.55;8.82;;;-5.10;99.90;;;;;;5009360;28;20057;-48
2021/12/21 07:48:41;;;;;;;12.95;8.88;;;-5.10;99.90;;;;;;5029101;28;20046;-49
2021/12/21 07:51:08;;;;;;;14.75;9.07;;;-5.10;99.90;;;;;;5029289;28;20028;-51
2021/12/21 07:53:34;;;;;;;10.75;8.00;;;-5.10;99.90;;;;;;5032730;28;20133;-49
2021/12/21 07:56:02;;;;;;;11.82;9.07;;;-5.10;99.90;;;;;;5015407;28;20369;-49
2021/12/21 07:58:29;;;;;;;13.45;8.48;;;-5.00;99.90;;;;;;5032634;28;20040;-50
2021/12/21 08:00:56;;;;;;;11.38;8.73;;;-5.00;99.90;;;;;;5031959;28;20033;-48
2021/12/21 08:03:22;;;;;;;9.77;7.90;;;-5.00;99.90;;;;;;5032349;28;20038;-48
2021/12/21 08:05:51;;;;;;;10.98;7.25;;;-5.00;99.90;;;;;;5032137;28;20033;-48
2021/12/21 08:08:20;;;;;;;13.30;8.32;;;-5.00;99.90;;;;;;5032423;28;20443;-51
2021/12/21 08:10:55;;;;;;;10.15;8.05;;;-5.00;99.90;;;;;;5033034;28;20635;-47
2021/12/21 08:13:22;;;;;;;10.23;7.63;;;-5.00;99.90;;;;;;5032114;28;20071;-50
2021/12/21 08:15:48;;;;;;;17.70;8.27;;;-5.00;99.90;;;;;;5024352;28;20483;-48
2021/12/21 08:18:14;;;;;;;10.82;8.32;;;-5.00;99.90;;;;;;5032519;28;20117;-49
2021/12/21 08:20:41;;;;;;;17.17;9.02;;;-4.90;99.90;;;;;;5032305;28;20471;-49
2021/12/21 08:23:08;;;;;;;11.18;7.95;;;-4.90;99.90;;;;;;5032466;28;20053;-48
2021/12/21 08:25:35;;;;;;;11.80;8.30;;;-4.90;99.90;;;;;;5032347;28;20230;-48
2021/12/21 08:28:01;;;;;;;12.10;8.73;;;-4.90;99.90;;;;;;5032313;28;20052;-46
2021/12/21 08:30:28;;;;;;;13.85;8.52;;;-4.90;99.90;;;;;;5032457;28;20017;-48
2021/12/21 08:32:54;;;;;;;10.93;8.27;;;-4.90;99.90;;;;;;5032394;28;20505;-48
2021/12/21 08:35:19;;;;;;;12.10;8.98;;;-4.90;99.90;;;;;;5031285;28;20028;-53
2021/12/21 08:37:51;;;;;;;14.90;9.75;;;-4.80;99.90;;;;;;5030710;28;20029;-48
2021/12/21 08:40:18;;;;;;;13.02;9.10;;;-4.80;99.90;;;;;;5032159;28;20080;-49
2021/12/21 08:42:46;;;;;;;15.68;9.05;;;-4.80;99.90;;;;;;5031319;28;20025;-50
2021/12/21 08:45:11;;;;;;;13.80;9.73;;;-4.80;99.90;;;;;;5021535;28;20041;-48
2021/12/21 08:47:37;;;;;;;13.55;9.23;;;-4.80;99.90;;;;;;5011671;28;20030;-49
2021/12/21 08:50:05;;;;;;;14.40;8.57;;;-4.80;99.90;;;;;;5022676;28;20029;-50
2021/12/21 08:52:32;;;;;;;14.82;9.45;;;-4.80;99.90;;;;;;5031657;28;20040;-51
2021/12/21 08:54:57;;;;;;;11.90;8.68;;;-4.70;99.90;;;;;;5030652;28;20033;-47
2021/12/21 08:57:23;;;;;;;13.82;9.93;;;-4.70;99.90;;;;;;5030939;28;20053;-49
2021/12/21 08:59:49;;;;;;;14.80;9.65;;;-4.60;99.90;;;;;;5029050;28;20033;-49
2021/12/21 09:02:15;;;;;;;12.48;8.30;;;-4.60;99.90;;;;;;5030567;28;20021;-49
2021/12/21 09:04:40;;;;;;;14.18;9.00;;;-4.50;99.90;;;;;;5029752;28;20049;-47
2021/12/21 09:07:07;;;;;;;16.23;11.02;;;-4.40;99.90;;;;;;5031182;28;20028;-51
2021/12/21 09:09:33;;;;;;;13.82;11.52;;;-4.30;99.90;;;;;;5030327;28;20464;-51
2021/12/21 09:11:58;;;;;;;13.73;10.98;;;-4.20;99.90;;;;;;5030829;28;20072;-49
2021/12/21 09:14:27;;;;;;;16.00;11.30;;;-4.10;99.90;;;;;;5030245;28;20026;-50
2021/12/21 09:16:52;;;;;;;13.65;10.63;;;-4.00;99.90;;;;;;5030469;28;20103;-49
2021/12/21 09:19:18;;;;;;;14.52;10.27;;;-3.90;99.90;;;;;;5030212;28;20037;-51
2021/12/21 09:21:44;;;;;;;11.60;9.38;;;-3.90;99.90;;;;;;5030869;28;20025;-48
2021/12/21 09:24:09;;;;;;;13.02;10.15;;;-3.80;99.90;;;;;;5030385;28;20025;-48
2021/12/21 09:26:36;;;;;;;10.48;9.20;;;-3.70;99.90;;;;;;5030231;28;20021;-51
2021/12/21 09:29:03;;;;;;;16.40;9.20;;;-3.70;99.90;;;;;;5028471;28;20216;-49
2021/12/21 09:31:29;;;;;;;10.52;8.73;;;-3.60;99.90;;;;;;5028459;28;20084;-48
2021/12/21 09:33:55;;;;;;;10.75;9.38;;;-3.60;99.90;;;;;;5029889;28;20498;-47
2021/12/21 09:36:21;;;;;;;11.25;8.43;;;-3.50;99.90;;;;;;5030264;28;20035;-51
2021/12/21 09:38:47;;;;;;;9.57;8.52;;;-3.50;99.90;;;;;;5028397;28;20095;-48
2021/12/21 09:41:13;;;;;;;10.77;7.50;;;-3.50;99.90;;;;;;5029871;28;20033;-49
2021/12/21 09:43:40;;;;;;;10.05;8.77;;;-3.40;99.90;;;;;;5022886;28;20026;-50
2021/12/21 09:46:07;;;;;;;10.95;9.45;;;-3.40;99.90;;;;;;5018333;28;20036;-48
2021/12/21 09:48:34;;;;;;;11.20;9.05;;;-3.30;99.90;;;;;;5025214;28;20059;-50
2021/12/21 09:50:59;;;;;;;10.90;8.05;;;-3.30;99.90;;;;;;5021686;28;20033;-49
2021/12/21 09:53:26;;;;;;;10.63;9.25;;;-3.30;99.90;;;;;;5018112;28;20087;-48
2021/12/21 09:55:52;;;;;;;13.23;9.13;;;-3.20;99.90;;;;;;5026596;28;20108;-48
2021/12/21 09:58:18;;;;;;;11.15;8.77;;;-3.20;99.90;;;;;;5029843;28;20042;-48
2021/12/21 10:00:44;;;;;;;11.63;9.60;;;-3.10;99.90;;;;;;5029354;28;20029;-50
2021/12/21 10:03:10;;;;;;;14.73;9.95;;;-3.10;99.90;;;;;;5030471;28;20084;-48
2021/12/21 10:05:40;;;;;;;11.30;9.48;;;-3.10;99.90;;;;;;5030350;28;20542;-48
2021/12/21 10:08:10;;;;;;;12.13;10.25;;;-3.00;99.90;;;;;;5030075;28;20033;-49
2021/12/21 10:10:39;;;;;;;12.43;9.80;;;-3.00;99.90;;;;;;5030252;28;20060;-48
2021/12/21 10:13:20;;;;;;;11.50;9.02;;;-3.00;99.90;;;;;;5030104;28;20025;-47
2021/12/21 10:15:55;;;;;;;12.38;9.82;;;-3.00;99.90;;;;;;5029427;28;20112;-49
2021/12/21 10:18:27;;;;;;;14.68;10.30;;;-3.00;99.90;;;;;;5029934;28;20087;-50
2021/12/21 10:20:54;;;;;;;14.68;11.02;;;-2.90;99.90;;;;;;5030214;28;20028;-50
2021/12/21 10:23:21;;;;;;;12.70;10.43;;;-2.90;99.90;;;;;;5030354;28;20033;-49
2021/12/21 10:25:55;;;;;;;11.63;10.45;;;-2.80;99.90;;;;;;5029879;28;20391;-48
2021/12/21 10:28:34;;;;;;;20.20;11.10;;;-2.80;99.90;;;;;;5030054;28;20099;-48
2021/12/21 10:31:14;;;;;;;14.15;10.63;;;-2.70;99.90;;;;;;5030043;28;20137;-49
2021/12/21 10:33:44;;;;;;;14.70;10.63;;;-2.70;99.90;;;;;;5030573;28;20038;-49
2021/12/21 10:36:10;;;;;;;13.43;10.52;;;-2.60;99.90;;;;;;5030283;28;20095;-49
2021/12/21 10:38:43;;;;;;;17.90;11.68;;;-2.60;99.90;;;;;;5029864;28;20025;-53
2021/12/21 10:41:21;;;;;;;14.25;11.40;;;-2.50;99.90;;;;;;5029605;28;20079;-49
2021/12/21 10:44:00;;;;;;;14.55;11.20;;;-2.40;99.90;;;;;;5027898;28;20034;-50
2021/12/21 10:46:29;;;;;;;15.93;11.63;;;-2.30;99.90;;;;;;5036760;22;20049;-77
2021/12/21 10:49:11;;;;;;;14.13;11.82;;;-2.20;99.90;;;;;;5012084;28;20671;-76
2021/12/21 10:51:51;;;;;;;16.55;12.07;;;-2.10;99.90;;;;;;5030225;28;20433;-77
2021/12/21 10:54:32;;;;;;;16.55;12.63;;;-1.90;99.90;;;;;;5030035;28;20022;-76
2021/12/21 10:57:05;;;;;;;15.23;11.77;;;-1.90;99.90;;;;;;5012376;28;20029;-77
2021/12/21 10:59:33;;;;;;;17.90;12.23;;;-1.80;99.90;;;;;;5012111;28;20179;-76
2021/12/21 11:02:18;;;;;;;18.08;13.52;;;-1.70;99.90;;;;;;5029779;28;20037;-77
2021/12/21 11:04:47;;;;;;;16.52;13.23;;;-1.70;99.90;;;;;;5030067;28;20515;-76
2021/12/21 11:07:30;;;;;;;18.23;13.77;;;-1.60;99.90;;;;;;5012253;28;20033;-76
2021/12/21 11:10:16;;;;;;;15.75;12.30;;;-1.50;99.90;;;;;;5012230;28;20523;-77
2021/12/21 11:12:46;;;;;;;17.70;13.35;;;-1.50;99.90;;;;;;5030264;28;20029;-77
2021/12/21 11:15:17;;;;;;;15.07;12.68;;;-1.40;99.90;;;;;;5012497;28;20040;-77
2021/12/21 11:17:43;;;;;;;14.57;11.45;;;-1.40;99.90;;;;;;5029616;28;20025;-76
2021/12/21 11:20:12;;;;;;;18.45;12.77;;;-1.30;99.90;;;;;;5019320;28;20148;-77
2021/12/21 11:22:40;;;;;;;15.52;12.43;;;-1.30;99.90;;;;;;5020212;28;20029;-77
2021/12/21 11:25:08;;;;;;;17.52;12.75;;;-1.20;99.90;;;;;;5029907;28;20085;-77
2021/12/21 11:27:36;;;;;;;18.35;13.30;;;-1.20;99.90;;;;;;5015566;28;20482;-77
2021/12/21 11:30:08;;;;;;;16.38;11.48;;;-1.20;99.90;;;;;;5016336;28;20021;-77
2021/12/21 11:32:39;;;;;;;17.30;12.25;;;-1.20;99.90;;;;;;5044755;28;20025;-77
2021/12/21 11:37:40;;;;;;;15.52;11.63;;;-1.00;99.90;;;;;;5032980;28;20071;-77
2021/12/21 11:40:07;;;;;;;16.50;10.32;;;-1.00;99.90;;;;;;5015850;28;20025;-77
2021/12/21 11:43:02;;;;;;;12.65;10.45;;;-1.00;99.90;;;;;;5033203;28;20029;-77
2021/12/21 11:45:37;;;;;;;16.02;11.15;;;-1.00;99.90;;;;;;5015687;28;20117;-77
2021/12/21 11:48:11;;;;;;;15.18;10.98;;;-1.00;99.90;;;;;;5033258;28;20018;-77
2021/12/21 11:50:39;;;;;;;13.25;11.00;;;-1.00;99.90;;;;;;5015879;28;20080;-77
2021/12/21 11:53:07;;;;;;;14.35;10.57;;;-0.90;99.90;;;;;;5050251;28;20025;-77
2021/12/21 11:55:36;;;;;;;13.90;10.18;;;-0.90;99.90;;;;;;5015441;28;20018;-77
2021/12/21 11:58:25;;;;;;;15.70;10.70;;;-0.90;99.90;;;;;;5033182;28;20099;-77
2021/12/21 12:01:12;;;;;;;11.93;10.63;;;-0.80;99.90;;;;;;5032832;28;20583;-77
2021/12/21 12:03:39;;;;;;;;;;;-0.80;99.90;;;;;;5015502;28;20022;-77
2021/12/21 12:06:14;;;;;;;14.43;9.30;;;-0.80;99.90;;;;;;5015318;28;19992;-77
2021/12/21 12:09:04;;;;;;;15.77;9.93;;;-0.80;99.90;;;;;;5032669;28;20021;-77
2021/12/21 12:11:37;;;;;;;13.95;11.13;;;-0.70;99.90;;;;;;5025351;28;20084;-76
2021/12/21 12:14:12;;;;;;;15.20;10.25;;;-0.70;99.90;;;;;;5014717;28;20037;-77
2021/12/21 12:16:53;;;;;;;12.07;9.93;;;-0.70;99.90;;;;;;5015026;28;20586;-77
2021/12/21 12:19:29;;;;;;;13.13;9.18;;;-0.70;99.90;;;;;;5014874;28;20045;-77
2021/12/21 12:22:06;;;;;;;15.27;10.20;;;-0.60;99.90;;;;;;5015034;28;20036;-77
2021/12/21 12:24:36;;;;;;;10.30;9.25;;;-0.60;99.90;;;;;;5033033;28;20029;-77
2021/12/21 12:27:24;;;;;;;13.00;9.13;;;-0.60;99.90;;;;;;5032575;28;20021;-77
2021/12/21 12:30:07;;;;;;;13.85;9.65;;;-0.50;99.90;;;;;;5032446;28;20109;-77
2021/12/21 12:32:47;;;;;;;11.43;8.65;;;-0.50;99.90;;;;;;5014999;28;20025;-77
2021/12/21 12:35:23;;;;;;;14.95;9.52;;;-0.50;99.90;;;;;;5014734;28;20128;-77
2021/12/21 12:38:12;;;;;;;12.45;9.52;;;-0.50;99.90;;;;;;5031064;28;20097;-77
2021/12/21 12:40:45;;;;;;;14.98;8.40;;;-0.40;99.90;;;;;;5007297;28;20492;-77
2021/12/21 12:43:25;;;;;;;15.70;9.10;;;-0.30;99.90;;;;;;5032732;28;20026;-77
2021/12/21 12:45:52;;;;;;;13.50;8.63;;;-0.30;99.90;;;;;;5015022;28;20056;-77
2021/12/21 12:48:21;;;;;;;11.48;8.57;;;-0.30;99.90;;;;;;5014759;28;20022;-77
2021/12/21 12:50:47;;;;;;;15.60;8.90;;;-0.30;99.90;;;;;;5032705;28;20490;-77
2021/12/21 12:53:13;;;;;;;12.50;9.15;;;-0.20;99.90;;;;;;5014339;28;20060;-77
2021/12/21 12:55:48;;;;;;;15.25;8.23;;;-0.20;99.90;;;;;;5033273;28;20051;-78
2021/12/21 12:58:22;;;;;;;14.32;8.15;;;-0.20;99.90;;;;;;5033090;28;20395;-78
2021/12/21 13:01:03;;;;;;;9.38;8.05;;;-0.20;99.90;;;;;;5033376;28;20057;-78
2021/12/21 13:03:35;;;;;;;11.50;8.63;;;-0.10;99.90;;;;;;5033193;28;20021;-77
2021/12/21 13:06:18;;;;;;;14.57;9.35;;;-0.20;99.90;;;;;;5032102;28;20120;-78
2021/12/21 13:08:46;;;;;;;9.95;8.48;;;-0.10;99.90;;;;;;5031849;28;20485;-78
2021/12/21 13:11:13;;;;;;;14.02;9.93;;;-0.10;99.90;;;;;;5014860;28;20570;-77
2021/12/21 13:13:45;;;;;;;14.27;8.95;;;-0.10;99.90;;;;;;5018921;28;20051;-77
2021/12/21 13:16:13;;;;;;;11.18;8.45;;;-0.10;99.90;;;;;;5028659;28;20415;-77
2021/12/21 13:18:45;;;;;;;14.90;8.32;;;-0.10;99.90;;;;;;5016921;28;20684;-77
2021/12/21 13:21:34;;;;;;;12.35;9.02;;;-0.10;99.90;;;;;;5022761;28;20033;-78
2021/12/21 13:24:10;;;;;;;11.05;7.93;;;-0.10;99.90;;;;;;5026848;28;20022;-78
2021/12/21 13:26:50;;;;;;;14.82;9.25;;;-0.10;99.90;;;;;;4995708;28;20018;-77
2021/12/21 13:29:18;;;;;;;11.30;8.98;;;-0.20;99.90;;;;;;5012993;28;20081;-78
2021/12/21 13:31:47;;;;;;;10.93;9.45;;;-0.20;99.90;;;;;;5031953;28;20122;-78
2021/12/21 13:34:14;;;;;;;10.20;9.13;;;-0.20;99.90;;;;;;5032777;28;20036;-77
2021/12/21 13:36:47;;;;;;;11.02;9.40;;;-0.20;99.90;;;;;;5014824;28;20129;-79
2021/12/21 13:39:23;;;;;;;11.68;8.98;;;-0.20;99.90;;;;;;5032896;28;20025;-78
2021/12/21 13:42:10;;;;;;;12.82;9.93;;;-0.20;99.90;;;;;;5033508;28;20488;-78
2021/12/21 13:44:39;;;;;;;11.90;9.30;;;-0.20;99.90;;;;;;5032596;28;20476;-78